createdAt,value
2022-08-26T00:01:17.669Z,22.47
2022-08-26T00:03:54.794Z,22.46
2022-08-26T00:06:25.347Z,22.37
2022-08-26T00:08:55.805Z,22.25
2022-08-26T00:11:28.980Z,22.23
2022-08-26T00:14:00.375Z,22.19
2022-08-26T00:16:32.265Z,22.13
2022-08-26T00:19:02.838Z,22.10
2022-08-26T00:21:33.080Z,22.05
2022-08-26T00:24:04.454Z,22.02
2022-08-26T00:26:37.682Z,21.99
2022-08-26T00:29:08.059Z,21.93
2022-08-26T00:31:39.940Z,21.89
2022-08-26T00:34:12.048Z,21.88
2022-08-26T00:36:42.585Z,21.78
2022-08-26T00:39:13.762Z,21.80
2022-08-26T00:41:47.434Z,21.82
2022-08-26T00:44:17.733Z,21.80
2022-08-26T00:46:51.960Z,21.76
2022-08-26T00:49:27.515Z,21.72
2022-08-26T00:52:03.718Z,21.64
2022-08-26T00:54:45.346Z,21.64
2022-08-26T00:57:20.063Z,21.70
2022-08-26T00:59:54.491Z,21.70
2022-08-26T01:02:25.006Z,21.65
2022-08-26T01:04:58.509Z,21.64
2022-08-26T01:07:30.277Z,21.64
2022-08-26T01:10:03.086Z,21.60
2022-08-26T01:12:42.244Z,21.61
2022-08-26T01:15:16.425Z,21.57
2022-08-26T01:17:47.477Z,21.59
2022-08-26T01:20:28.765Z,21.59
2022-08-26T01:23:03.896Z,21.58
2022-08-26T01:25:36.792Z,21.58
2022-08-26T01:28:10.587Z,21.55
2022-08-26T01:30:41.585Z,21.56
2022-08-26T01:33:15.485Z,21.54
2022-08-26T01:35:46.248Z,21.52
2022-08-26T01:38:19.918Z,21.48
2022-08-26T01:40:50.146Z,21.51
2022-08-26T01:43:25.281Z,21.60
2022-08-26T01:45:57.296Z,21.70
2022-08-26T01:48:30.411Z,21.77
2022-08-26T01:51:02.066Z,21.82
2022-08-26T01:53:35.220Z,21.89
2022-08-26T01:56:07.162Z,21.90
2022-08-26T01:58:41.389Z,21.92
2022-08-26T02:01:13.230Z,21.90
2022-08-26T02:03:51.732Z,21.92
2022-08-26T02:06:22.555Z,21.91
2022-08-26T02:08:59.197Z,21.92
2022-08-26T02:11:29.378Z,21.89
2022-08-26T02:14:03.432Z,21.86
2022-08-26T02:16:37.703Z,21.85
2022-08-26T02:19:09.583Z,21.81
2022-08-26T02:21:51.255Z,21.82
2022-08-26T02:24:27.869Z,21.84
2022-08-26T02:27:12.994Z,21.81
2022-08-26T02:29:47.825Z,21.79
2022-08-26T02:32:20.429Z,21.76
2022-08-26T02:34:50.610Z,21.72
2022-08-26T02:37:20.905Z,21.68
2022-08-26T02:39:55.926Z,21.67
2022-08-26T02:42:27.291Z,21.59
2022-08-26T02:44:57.456Z,21.53
2022-08-26T02:47:29.247Z,21.45
2022-08-26T02:50:03.108Z,21.47
2022-08-26T02:52:33.556Z,21.44
2022-08-26T02:55:08.175Z,21.38
2022-08-26T02:57:38.446Z,21.31
2022-08-26T03:00:12.064Z,21.23
2022-08-26T03:02:42.236Z,21.19
2022-08-26T03:05:14.368Z,21.15
2022-08-26T03:07:46.341Z,21.12
2022-08-26T03:10:19.670Z,21.09
2022-08-26T03:12:50.838Z,21.06
2022-08-26T03:15:22.910Z,21.05
2022-08-26T03:17:53.411Z,21.03
2022-08-26T03:20:24.036Z,21.08
2022-08-26T03:22:56.235Z,21.02
2022-08-26T03:25:29.964Z,20.98
2022-08-26T03:27:59.871Z,20.91
2022-08-26T03:30:44.658Z,20.92
2022-08-26T03:33:16.939Z,20.89
2022-08-26T03:35:50.491Z,20.87
2022-08-26T03:38:22.195Z,20.86
2022-08-26T03:40:55.056Z,20.87
2022-08-26T03:43:26.959Z,20.84
2022-08-26T03:45:57.228Z,20.79
2022-08-26T03:48:27.469Z,20.78
2022-08-26T03:50:57.661Z,20.73
2022-08-26T03:53:28.151Z,20.74
2022-08-26T03:56:00.956Z,20.75
2022-08-26T03:58:32.264Z,20.75
2022-08-26T04:01:02.547Z,20.77
2022-08-26T04:03:45.798Z,20.78
2022-08-26T04:06:17.827Z,20.81
2022-08-26T04:08:48.087Z,20.86
2022-08-26T04:11:26.964Z,20.93
2022-08-26T04:13:57.492Z,20.95
2022-08-26T04:16:31.895Z,21.02
2022-08-26T04:19:02.380Z,21.08
2022-08-26T04:21:32.628Z,21.13
2022-08-26T04:24:03.564Z,21.17
2022-08-26T04:26:39.560Z,21.27
2022-08-26T04:29:16.174Z,21.33
2022-08-26T04:31:47.086Z,21.44
2022-08-26T04:34:19.495Z,21.51
2022-08-26T04:36:49.814Z,21.53
2022-08-26T04:39:20.911Z,21.62
2022-08-26T04:41:57.766Z,21.72
2022-08-26T04:44:30.379Z,21.81
2022-08-26T04:47:01.392Z,21.88
2022-08-26T04:49:35.519Z,21.94
2022-08-26T04:52:06.682Z,22.04
2022-08-26T04:54:37.924Z,22.13
2022-08-26T04:57:15.173Z,22.20
2022-08-26T04:59:45.476Z,22.17
2022-08-26T05:02:16.364Z,22.23
2022-08-26T05:04:46.604Z,22.26
2022-08-26T05:07:17.702Z,22.45
2022-08-26T05:09:48.126Z,22.65
2022-08-26T05:12:20.947Z,22.82
2022-08-26T05:14:51.113Z,23.29
2022-08-26T05:17:22.107Z,23.89
2022-08-26T05:19:53.077Z,24.58
2022-08-26T05:22:23.248Z,24.96
2022-08-26T05:24:53.513Z,25.50
2022-08-26T05:27:27.068Z,25.90
2022-08-26T05:30:00.274Z,26.29
2022-08-26T05:32:32.169Z,26.48
2022-08-26T05:35:02.526Z,26.53
2022-08-26T05:37:33.138Z,26.20
2022-08-26T05:40:06.052Z,26.16
2022-08-26T05:42:40.138Z,26.46
2022-08-26T05:45:14.347Z,26.68
2022-08-26T05:47:44.496Z,26.62
2022-08-26T05:50:22.027Z,26.73
2022-08-26T05:52:56.420Z,27.14
2022-08-26T05:55:26.310Z,27.35
2022-08-26T05:57:59.096Z,27.51
2022-08-26T06:00:33.034Z,27.70
2022-08-26T06:03:03.308Z,28.20
2022-08-26T06:05:38.288Z,28.78
2022-08-26T06:08:19.156Z,29.18
2022-08-26T06:10:51.987Z,29.67
2022-08-26T06:13:27.293Z,30.06
2022-08-26T06:16:02.661Z,30.37
2022-08-26T06:18:36.613Z,30.35
2022-08-26T06:21:16.711Z,30.18
2022-08-26T06:24:01.001Z,30.72
2022-08-26T06:26:31.842Z,31.17
2022-08-26T06:29:05.700Z,31.36
2022-08-26T06:31:37.658Z,31.83
2022-08-26T06:34:10.985Z,32.15
2022-08-26T06:36:43.992Z,32.49
2022-08-26T06:39:15.234Z,32.85
2022-08-26T06:41:47.331Z,33.18
2022-08-26T06:44:21.079Z,33.37
2022-08-26T06:46:51.467Z,33.33
2022-08-26T06:49:27.251Z,33.46
2022-08-26T06:51:59.393Z,33.05
2022-08-26T06:54:31.951Z,32.78
2022-08-26T06:57:02.457Z,32.18
2022-08-26T06:59:36.303Z,31.74
2022-08-26T07:02:08.450Z,32.21
2022-08-26T07:04:41.141Z,32.53
2022-08-26T07:07:11.920Z,32.40
2022-08-26T07:09:42.104Z,32.54
2022-08-26T07:12:12.880Z,32.37
2022-08-26T07:14:47.422Z,32.62
2022-08-26T07:17:20.444Z,32.54
2022-08-26T07:19:50.896Z,32.41
2022-08-26T07:22:25.920Z,32.54
2022-08-26T07:24:55.785Z,32.35
2022-08-26T07:27:26.357Z,32.81
2022-08-26T07:30:02.130Z,33.15
2022-08-26T07:32:33.763Z,32.61
2022-08-26T07:35:04.027Z,32.57
2022-08-26T07:37:35.502Z,32.77
2022-08-26T07:40:10.668Z,32.45
2022-08-26T07:42:42.105Z,32.95
2022-08-26T07:45:15.006Z,32.63
2022-08-26T07:47:45.672Z,33.23
2022-08-26T07:50:16.541Z,33.79
2022-08-26T07:52:46.845Z,33.04
2022-08-26T07:55:17.744Z,33.19
2022-08-26T07:57:48.593Z,33.35
2022-08-26T08:00:22.048Z,33.40
2022-08-26T08:02:51.989Z,32.73
2022-08-26T08:05:33.563Z,32.27
2022-08-26T08:08:27.207Z,32.32
2022-08-26T08:10:56.084Z,32.77
2022-08-26T08:13:27.031Z,32.12
2022-08-26T08:16:00.738Z,32.33
2022-08-26T08:18:32.022Z,32.77
2022-08-26T08:21:21.170Z,32.61
2022-08-26T08:23:53.026Z,32.82
2022-08-26T08:26:23.796Z,33.04
2022-08-26T08:28:56.472Z,33.22
2022-08-26T08:34:26.217Z,32.76
2022-08-26T08:36:57.470Z,33.04
2022-08-26T08:39:28.342Z,32.93
2022-08-26T08:42:35.281Z,32.72
2022-08-26T08:45:10.177Z,32.93
2022-08-26T08:47:47.570Z,33.14
2022-08-26T08:50:25.268Z,33.39
2022-08-26T08:53:05.774Z,33.40
2022-08-26T08:55:50.746Z,33.29
2022-08-26T08:58:24.360Z,33.46
2022-08-26T09:01:01.240Z,33.22
2022-08-26T09:03:50.434Z,33.58
2022-08-26T09:06:20.952Z,33.99
2022-08-26T09:08:53.561Z,33.03
2022-08-26T09:11:27.630Z,33.30
2022-08-26T09:14:00.297Z,33.65
2022-08-26T09:16:40.261Z,33.66
2022-08-26T09:19:26.662Z,34.29
2022-08-26T09:22:01.614Z,34.03
2022-08-26T09:24:42.127Z,34.29
2022-08-26T09:27:39.306Z,34.56
2022-08-26T09:30:12.270Z,34.43
2022-08-26T09:32:44.596Z,33.67
2022-08-26T09:35:34.448Z,33.92
2022-08-26T09:38:06.996Z,34.25
2022-08-26T09:40:40.753Z,33.90
2022-08-26T09:43:15.996Z,34.13
2022-08-26T09:45:59.115Z,34.85
2022-08-26T09:48:35.449Z,34.30
2022-08-26T09:51:35.156Z,33.75
2022-08-26T09:54:08.241Z,34.09
2022-08-26T09:56:43.035Z,34.49
2022-08-26T09:59:18.826Z,34.64
2022-08-26T10:01:49.459Z,34.93
2022-08-26T10:04:26.687Z,34.80
2022-08-26T10:07:05.433Z,34.28
2022-08-26T10:09:39.034Z,34.36
2022-08-26T10:12:13.483Z,34.52
2022-08-26T10:14:50.329Z,34.43
2022-08-26T10:17:29.165Z,34.57
2022-08-26T10:20:06.593Z,34.86
2022-08-26T10:23:01.114Z,35.26
2022-08-26T10:25:36.233Z,35.05
2022-08-26T10:28:15.226Z,35.43
2022-08-26T10:30:50.135Z,35.58
2022-08-26T10:33:21.155Z,35.75
2022-08-26T10:35:55.560Z,35.32
2022-08-26T10:38:34.428Z,35.28
2022-08-26T10:41:10.784Z,35.18
2022-08-26T10:43:47.953Z,35.73
2022-08-26T10:46:27.106Z,36.05
2022-08-26T10:49:03.278Z,35.42
2022-08-26T10:51:42.271Z,35.57
2022-08-26T10:54:22.709Z,36.05
2022-08-26T11:03:31.653Z,35.58
2022-08-26T11:06:37.092Z,35.92
2022-08-26T11:37:03.503Z,36.09
2022-08-26T11:39:39.366Z,35.94
2022-08-26T11:42:23.494Z,35.53
2022-08-26T11:44:58.940Z,35.67
2022-08-26T11:47:34.143Z,35.64
2022-08-26T11:50:13.103Z,35.68
2022-08-26T11:52:54.415Z,35.68
2022-08-26T11:55:25.126Z,35.78
2022-08-26T11:58:00.996Z,35.73
2022-08-26T12:00:34.567Z,35.92
2022-08-26T12:03:12.000Z,35.74
2022-08-26T12:05:47.959Z,35.75
2022-08-26T12:08:23.472Z,35.78
2022-08-26T12:11:06.503Z,35.33
2022-08-26T12:13:39.162Z,35.15
2022-08-26T12:16:09.657Z,35.41
2022-08-26T12:18:41.846Z,35.56
2022-08-26T12:21:17.488Z,35.72
2022-08-26T12:23:54.724Z,35.90
2022-08-26T12:26:29.070Z,35.85
2022-08-26T12:29:12.699Z,35.66
2022-08-26T12:31:51.353Z,35.37
2022-08-26T12:34:23.060Z,35.68
2022-08-26T12:39:53.190Z,35.78
2022-08-26T12:42:43.545Z,36.03
2022-08-26T12:45:13.878Z,35.96
2022-08-26T12:47:45.950Z,35.68
2022-08-26T12:50:23.422Z,35.56
2022-08-26T12:53:01.861Z,35.73
2022-08-26T12:55:44.158Z,35.69
2022-08-26T12:58:29.238Z,34.77
2022-08-26T13:01:00.976Z,35.25
2022-08-26T13:03:45.702Z,35.08
2022-08-26T13:06:20.635Z,35.38
2022-08-26T13:08:51.931Z,34.86
2022-08-26T13:11:27.542Z,34.70
2022-08-26T13:14:00.610Z,35.09
2022-08-26T13:16:32.545Z,35.21
2022-08-26T13:19:05.277Z,35.30
2022-08-26T13:21:38.559Z,34.95
2022-08-26T13:24:13.486Z,34.98
2022-08-26T13:26:49.152Z,35.13
2022-08-26T13:29:19.498Z,34.57
2022-08-26T13:31:51.111Z,34.60
2022-08-26T13:34:22.951Z,34.76
2022-08-26T13:36:56.454Z,34.69
2022-08-26T13:39:27.719Z,34.52
2022-08-26T13:42:00.557Z,34.61
2022-08-26T13:44:30.726Z,34.86
2022-08-26T13:47:00.895Z,34.12
2022-08-26T13:49:31.166Z,34.52
2022-08-26T13:52:02.091Z,34.65
2022-08-26T13:54:32.410Z,34.74
2022-08-26T13:57:06.123Z,34.78
2022-08-26T13:59:36.348Z,34.65
2022-08-26T14:02:07.034Z,34.51
2022-08-26T14:04:38.845Z,34.56
2022-08-26T14:07:09.196Z,34.25
2022-08-26T14:09:40.559Z,34.52
2022-08-26T14:12:13.490Z,34.49
2022-08-26T14:14:43.717Z,34.06
2022-08-26T14:17:16.250Z,34.40
2022-08-26T14:19:49.523Z,34.55
2022-08-26T14:22:21.628Z,34.55
2022-08-26T14:24:52.798Z,34.37
2022-08-26T14:27:25.624Z,34.34
2022-08-26T14:29:59.596Z,34.51
2022-08-26T14:32:32.328Z,34.65
2022-08-26T14:35:02.707Z,34.47
2022-08-26T14:37:33.256Z,34.40
2022-08-26T14:40:06.052Z,34.48
2022-08-26T14:42:39.681Z,34.34
2022-08-26T14:45:13.418Z,34.35
2022-08-26T14:47:43.738Z,34.28
2022-08-26T14:50:14.456Z,34.24
2022-08-26T14:52:57.498Z,34.25
2022-08-26T14:55:27.893Z,34.22
2022-08-26T14:58:00.870Z,34.36
2022-08-26T15:00:31.866Z,34.27
2022-08-26T15:03:02.407Z,34.23
2022-08-26T15:05:33.089Z,33.93
2022-08-26T15:08:04.805Z,33.70
2022-08-26T15:10:35.167Z,33.86
2022-08-26T15:13:08.072Z,33.72
2022-08-26T15:15:40.927Z,33.46
2022-08-26T15:18:11.163Z,33.59
2022-08-26T15:20:41.390Z,33.65
2022-08-26T15:23:11.916Z,33.60
2022-08-26T15:25:42.691Z,33.58
2022-08-26T15:28:15.868Z,33.58
2022-08-26T15:30:46.595Z,33.47
2022-08-26T15:33:16.955Z,33.41
2022-08-26T15:35:47.189Z,33.29
2022-08-26T15:38:19.551Z,33.01
2022-08-26T15:40:49.907Z,33.09
2022-08-26T15:43:28.386Z,33.05
2022-08-26T15:46:01.172Z,32.86
2022-08-26T15:48:31.636Z,32.89
2022-08-26T15:51:03.754Z,32.84
2022-08-26T15:53:36.282Z,32.70
2022-08-26T15:56:06.873Z,32.64
2022-08-26T15:58:42.723Z,32.63
2022-08-26T16:01:15.054Z,32.54
2022-08-26T16:03:58.823Z,32.59
2022-08-26T16:06:31.520Z,32.52
2022-08-26T16:09:02.165Z,32.38
2022-08-26T16:11:32.337Z,32.20
2022-08-26T16:14:05.227Z,32.22
2022-08-26T16:16:35.475Z,32.15
2022-08-26T16:19:07.632Z,31.99
2022-08-26T16:21:38.836Z,31.93
2022-08-26T16:24:09.403Z,31.83
2022-08-26T16:26:41.755Z,31.79
2022-08-26T16:29:17.532Z,31.71
2022-08-26T16:31:50.624Z,31.74
2022-08-26T16:34:20.851Z,31.72
2022-08-26T16:36:51.126Z,31.61
2022-08-26T16:39:21.368Z,31.48
2022-08-26T16:41:51.592Z,31.39
2022-08-26T16:44:24.653Z,31.28
2022-08-26T16:47:00.909Z,31.28
2022-08-26T16:49:31.149Z,31.17
2022-08-26T16:52:01.376Z,31.11
2022-08-26T16:54:31.577Z,31.03
2022-08-26T16:57:01.752Z,30.94
2022-08-26T16:59:35.731Z,30.76
2022-08-26T17:02:06.028Z,30.64
2022-08-26T17:04:36.519Z,30.45
2022-08-26T17:07:07.009Z,30.31
2022-08-26T17:09:37.893Z,30.20
2022-08-26T17:12:11.866Z,30.04
2022-08-26T17:14:45.880Z,29.95
2022-08-26T17:17:16.151Z,29.74
2022-08-26T17:19:47.131Z,29.57
2022-08-26T17:22:18.011Z,29.35
2022-08-26T17:24:48.269Z,29.16
2022-08-26T17:27:21.037Z,28.98
2022-08-26T17:29:53.875Z,28.82
2022-08-26T17:32:24.291Z,28.66
2022-08-26T17:34:54.604Z,28.52
2022-08-26T17:37:24.847Z,28.35
2022-08-26T17:39:55.109Z,28.20
2022-08-26T17:42:31.521Z,28.01
2022-08-26T17:45:04.762Z,27.84
2022-08-26T17:47:35.653Z,27.68
2022-08-26T17:50:09.590Z,27.55
2022-08-26T17:52:41.053Z,27.39
2022-08-26T17:55:13.347Z,27.23
2022-08-26T17:57:44.063Z,27.03
2022-08-26T18:00:28.485Z,26.98
2022-08-26T18:02:59.254Z,26.87
2022-08-26T18:05:30.033Z,26.76
2022-08-26T18:08:00.272Z,26.67
2022-08-26T18:10:31.483Z,26.57
2022-08-26T18:13:01.962Z,26.50
2022-08-26T18:15:35.021Z,26.46
2022-08-26T18:18:05.307Z,26.41
2022-08-26T18:20:35.543Z,26.38
2022-08-26T18:23:08.856Z,26.36
2022-08-26T18:25:42.400Z,26.37
2022-08-26T18:28:12.985Z,26.39
2022-08-26T18:30:48.184Z,26.41
2022-08-26T18:33:19.456Z,26.38
2022-08-26T18:35:50.063Z,26.37
2022-08-26T18:38:20.273Z,26.33
2022-08-26T18:40:52.724Z,26.27
2022-08-26T18:43:23.554Z,26.17
2022-08-26T18:46:04.420Z,26.08
2022-08-26T18:48:34.872Z,26.00
2022-08-26T18:51:05.172Z,25.95
2022-08-26T18:53:37.106Z,25.89
2022-08-26T18:56:07.500Z,25.82
2022-08-26T18:58:37.767Z,25.78
2022-08-26T19:01:10.687Z,25.69
2022-08-26T19:03:41.015Z,25.62
2022-08-26T19:06:11.659Z,25.56
2022-08-26T19:08:44.626Z,25.48
2022-08-26T19:11:15.623Z,25.42
2022-08-26T19:13:47.441Z,25.38
2022-08-26T19:16:22.655Z,25.33
2022-08-26T19:18:53.537Z,25.27
2022-08-26T19:21:25.398Z,25.22
2022-08-26T19:23:59.395Z,25.15
2022-08-26T19:26:30.508Z,25.09
2022-08-26T19:29:02.099Z,25.10
2022-08-26T19:31:34.902Z,25.04
2022-08-26T19:34:07.218Z,24.96
2022-08-26T19:36:39.285Z,24.91
2022-08-26T19:39:13.624Z,24.82
2022-08-26T19:41:44.280Z,24.78
2022-08-26T19:44:37.637Z,24.74
2022-08-26T19:47:14.315Z,24.60
2022-08-26T19:49:45.019Z,24.68
2022-08-26T19:52:16.087Z,24.64
2022-08-26T19:54:46.335Z,24.59
2022-08-26T19:57:16.636Z,24.58
2022-08-26T19:59:47.249Z,24.54
2022-08-26T20:02:20.213Z,24.51
2022-08-26T20:04:50.614Z,24.49
2022-08-26T20:07:20.939Z,24.47
2022-08-26T20:09:52.176Z,24.45
2022-08-26T20:12:22.557Z,24.46
2022-08-26T20:14:52.789Z,24.42
2022-08-26T20:17:25.625Z,24.37
2022-08-26T20:20:14.724Z,24.32
2022-08-26T20:22:58.699Z,24.20
2022-08-26T20:25:29.433Z,24.22
2022-08-26T20:27:59.884Z,24.20
2022-08-26T20:30:30.188Z,24.15
2022-08-26T20:33:03.084Z,24.12
2022-08-26T20:35:33.824Z,24.09
2022-08-26T20:38:04.150Z,24.05
2022-08-26T20:40:35.711Z,24.00
2022-08-26T20:43:06.401Z,23.95
2022-08-26T20:45:37.607Z,23.88
2022-08-26T20:48:11.016Z,23.89
2022-08-26T20:50:41.906Z,23.86
2022-08-26T20:53:12.179Z,23.87
2022-08-26T20:55:42.529Z,23.74
2022-08-26T20:58:12.814Z,23.77
2022-08-26T21:00:43.084Z,23.72
2022-08-26T21:03:15.926Z,23.66
2022-08-26T21:05:46.692Z,23.68
2022-08-26T21:08:16.957Z,23.64
2022-08-26T21:10:48.766Z,23.64
2022-08-26T21:13:19.755Z,23.61
2022-08-26T21:15:50.176Z,23.56
2022-08-26T21:18:23.313Z,23.53
2022-08-26T21:20:53.845Z,23.50
2022-08-26T21:23:28.702Z,23.49
2022-08-26T21:25:59.547Z,23.42
2022-08-26T21:28:29.719Z,23.38
2022-08-26T21:31:00.343Z,23.38
2022-08-26T21:33:33.258Z,23.37
2022-08-26T21:36:03.512Z,23.36
2022-08-26T21:38:34.237Z,23.35
2022-08-26T21:41:07.086Z,23.33
2022-08-26T21:43:39.829Z,23.23
2022-08-26T21:46:15.204Z,23.19
2022-08-26T21:48:50.941Z,23.16
2022-08-26T21:51:23.989Z,23.10
2022-08-26T21:53:55.105Z,22.96
2022-08-26T21:56:31.697Z,22.98
2022-08-26T21:59:02.954Z,22.99
2022-08-26T22:01:35.144Z,22.94
2022-08-26T22:04:10.945Z,22.93
2022-08-26T22:06:46.033Z,22.89
2022-08-26T22:09:17.597Z,22.84
2022-08-26T22:11:48.851Z,22.81
2022-08-26T22:14:31.328Z,22.79
2022-08-26T22:17:05.395Z,22.76
2022-08-26T22:20:03.022Z,22.72
2022-08-26T22:22:41.687Z,22.68
2022-08-26T22:25:13.241Z,22.67
2022-08-26T22:27:43.425Z,22.64
2022-08-26T22:30:14.318Z,22.60
2022-08-26T22:32:45.790Z,22.55
2022-08-26T22:35:29.064Z,22.47
2022-08-26T22:38:01.096Z,22.46
2022-08-26T22:40:31.444Z,22.45
2022-08-26T22:43:02.337Z,22.44
2022-08-26T22:45:34.490Z,22.40
2022-08-26T22:48:06.749Z,22.40
2022-08-26T22:50:40.022Z,22.34
2022-08-26T22:53:10.233Z,22.34
2022-08-26T22:55:40.715Z,22.28
2022-08-26T22:58:14.755Z,22.24
2022-08-26T23:00:45.984Z,22.19
2022-08-26T23:03:19.510Z,22.16
2022-08-26T23:05:53.527Z,22.16
2022-08-26T23:08:26.115Z,22.18
2022-08-26T23:10:56.723Z,22.17
2022-08-26T23:13:28.209Z,22.16
2022-08-26T23:16:04.083Z,22.13
2022-08-26T23:18:40.836Z,22.12
2022-08-26T23:21:15.321Z,22.13
2022-08-26T23:23:53.031Z,22.11
2022-08-26T23:27:19.959Z,22.08
2022-08-26T23:29:50.251Z,22.08
2022-08-26T23:32:20.409Z,22.05
2022-08-26T23:34:59.743Z,22.02
2022-08-26T23:37:36.365Z,21.99
2022-08-26T23:40:13.969Z,21.96
2022-08-26T23:42:44.210Z,21.93
2022-08-26T23:45:18.609Z,21.89
2022-08-26T23:47:50.679Z,21.86
2022-08-26T23:50:22.146Z,21.82
2022-08-26T23:53:08.785Z,21.81
2022-08-26T23:55:40.316Z,21.80
2022-08-26T23:58:10.735Z,21.77
